Aviation Digital Data Service (ADDS)

Output produced by METARs form (0156 UTC 20 September 2020)
found at http://www.aviationweather.gov/metar/data/
 
METAR text: LTBA 200120Z 01014KT 9999 SCT040 20/12 Q1016 NOSIG RMK RWY17L /////KT RWY05 03014KT RWY23 03015KT
Conditions at: LTBA (ISTANBUL/ATATURK, TR) observed 0120 UTC 20 September 2020
Temperature: 20.0°C (68°F)
Dewpoint: 12.0°C (54°F) [RH = 60%]
Pressure (altimeter): 30.00 inches Hg (1016.0 mb)
Winds: from the N (10 degrees) at 16 MPH (14 knots; 7.2 m/s)
Visibility: 6 or more miles (10+ km)
Ceiling: at least 12,000 feet AGL
Clouds: scattered clouds at 4000 feet AGL
Weather: no significant weather observed at this time

METAR text: LTBA 200050Z 01013KT 9999 SCT040 20/12 Q1017 NOSIG RMK RWY17L /////KT RWY05 03013KT RWY23 04015KT
Conditions at: LTBA (ISTANBUL/ATATURK, TR) observed 0050 UTC 20 September 2020
Temperature: 20.0°C (68°F)
Dewpoint: 12.0°C (54°F) [RH = 60%]
Pressure (altimeter): 30.03 inches Hg (1017.0 mb)
Winds: from the N (10 degrees) at 15 MPH (13 knots; 6.7 m/s)
Visibility: 6 or more miles (10+ km)
Ceiling: at least 12,000 feet AGL
Clouds: scattered clouds at 4000 feet AGL
Weather: no significant weather observed at this time

METAR text: LTBA 200020Z 02014KT 9999 SCT040 20/13 Q1017 NOSIG RMK RWY17L /////KT RWY05 04015KT RWY23 04016KT
Conditions at: LTBA (ISTANBUL/ATATURK, TR) observed 0020 UTC 20 September 2020
Temperature: 20.0°C (68°F)
Dewpoint: 13.0°C (55°F) [RH = 64%]
Pressure (altimeter): 30.03 inches Hg (1017.0 mb)
Winds: from the NNE (20 degrees) at 16 MPH (14 knots; 7.2 m/s)
Visibility: 6 or more miles (10+ km)
Ceiling: at least 12,000 feet AGL
Clouds: scattered clouds at 4000 feet AGL
Weather: no significant weather observed at this time

METAR text: LTBA 192350Z 03012KT 9999 SCT040 20/12 Q1017 NOSIG RMK RWY17L /////KT RWY05 05015KT RWY23 04014KT
Conditions at: LTBA (ISTANBUL/ATATURK, TR) observed 2350 UTC 19 September 2020
Temperature: 20.0°C (68°F)
Dewpoint: 12.0°C (54°F) [RH = 60%]
Pressure (altimeter): 30.03 inches Hg (1017.0 mb)
Winds: from the NNE (30 degrees) at 14 MPH (12 knots; 6.2 m/s)
Visibility: 6 or more miles (10+ km)
Ceiling: at least 12,000 feet AGL
Clouds: scattered clouds at 4000 feet AGL
Weather: no significant weather observed at this time

METAR text: LTBA 192320Z 03010KT 9999 SCT040 20/12 Q1018 NOSIG RMK RWY17L /////KT RWY05 05015KT RWY23 05013KT
Conditions at: LTBA (ISTANBUL/ATATURK, TR) observed 2320 UTC 19 September 2020
Temperature: 20.0°C (68°F)
Dewpoint: 12.0°C (54°F) [RH = 60%]
Pressure (altimeter): 30.06 inches Hg (1018.0 mb)
Winds: from the NNE (30 degrees) at 12 MPH (10 knots; 5.1 m/s)
Visibility: 6 or more miles (10+ km)
Ceiling: at least 12,000 feet AGL
Clouds: scattered clouds at 4000 feet AGL
Weather: no significant weather observed at this time

METAR text: LTBA 192250Z 02009KT 360V060 9999 SCT040 20/12 Q1018 NOSIG RMK RWY17L /////KT RWY05 05014KT RWY23 05013KT
Conditions at: LTBA (ISTANBUL/ATATURK, TR) observed 2250 UTC 19 September 2020
Temperature: 20.0°C (68°F)
Dewpoint: 12.0°C (54°F) [RH = 60%]
Pressure (altimeter): 30.06 inches Hg (1018.0 mb)
Winds: from the NNE (20 degrees) at 10 MPH (9 knots; 4.6 m/s)
Visibility: 6 or more miles (10+ km)
Ceiling: at least 12,000 feet AGL
Clouds: scattered clouds at 4000 feet AGL
Weather: no significant weather observed at this time

METAR text: LTBA 192220Z 04010KT 360V060 9000 SCT040 20/12 Q1018 NOSIG RMK RWY17L /////KT RWY05 06015KT RWY23 05014KT
Conditions at: LTBA (ISTANBUL/ATATURK, TR) observed 2220 UTC 19 September 2020
Temperature: 20.0°C (68°F)
Dewpoint: 12.0°C (54°F) [RH = 60%]
Pressure (altimeter): 30.06 inches Hg (1018.0 mb)
Winds: from the NE (40 degrees) at 12 MPH (10 knots; 5.1 m/s)
Visibility: 6 miles ( 9 km)
Ceiling: at least 12,000 feet AGL
Clouds: scattered clouds at 4000 feet AGL
Weather: no significant weather observed at this time

METAR text: LTBA 192150Z 02011KT 9999 BKN040 20/12 Q1018 NOSIG RMK RWY17L /////KT RWY05 05013KT RWY23 06013KT
Conditions at: LTBA (ISTANBUL/ATATURK, TR) observed 2150 UTC 19 September 2020
Temperature: 20.0°C (68°F)
Dewpoint: 12.0°C (54°F) [RH = 60%]
Pressure (altimeter): 30.06 inches Hg (1018.0 mb)
Winds: from the NNE (20 degrees) at 13 MPH (11 knots; 5.7 m/s)
Visibility: 6 or more miles (10+ km)
Ceiling: 4000 feet AGL
Clouds: broken clouds at 4000 feet AGL
Weather: no significant weather observed at this time

METAR text: LTBA 192120Z 03010KT 9999 BKN040 21/13 Q1018 NOSIG RMK RWY17L /////KT RWY05 05010G20KT 020V080 RWY23 06013KT
Conditions at: LTBA (ISTANBUL/ATATURK, TR) observed 2120 UTC 19 September 2020
Temperature: 21.0°C (70°F)
Dewpoint: 13.0°C (55°F) [RH = 60%]
Pressure (altimeter): 30.06 inches Hg (1018.0 mb)
Winds: from the NNE (30 degrees) at 12 MPH (10 knots; 5.1 m/s)
Visibility: 6 or more miles (10+ km)
Ceiling: 4000 feet AGL
Clouds: broken clouds at 4000 feet AGL
Weather: no significant weather observed at this time

METAR text: LTBA 192050Z 02010KT 9999 SCT040 20/13 Q1018 NOSIG RMK RWY17L /////KT RWY05 04010KT RWY23 05010KT
Conditions at: LTBA (ISTANBUL/ATATURK, TR) observed 2050 UTC 19 September 2020
Temperature: 20.0°C (68°F)
Dewpoint: 13.0°C (55°F) [RH = 64%]
Pressure (altimeter): 30.06 inches Hg (1018.0 mb)
Winds: from the NNE (20 degrees) at 12 MPH (10 knots; 5.1 m/s)
Visibility: 6 or more miles (10+ km)
Ceiling: at least 12,000 feet AGL
Clouds: scattered clouds at 4000 feet AGL
Weather: no significant weather observed at this time

METAR text: LTBA 192020Z 02011KT 9999 SCT040 20/13 Q1018 NOSIG RMK RWY17L /////KT RWY05 04012KT RWY23 05011KT
Conditions at: LTBA (ISTANBUL/ATATURK, TR) observed 2020 UTC 19 September 2020
Temperature: 20.0°C (68°F)
Dewpoint: 13.0°C (55°F) [RH = 64%]
Pressure (altimeter): 30.06 inches Hg (1018.0 mb)
Winds: from the NNE (20 degrees) at 13 MPH (11 knots; 5.7 m/s)
Visibility: 6 or more miles (10+ km)
Ceiling: at least 12,000 feet AGL
Clouds: scattered clouds at 4000 feet AGL
Weather: no significant weather observed at this time

METAR text: LTBA 191950Z 02012KT 9999 SCT033 20/13 Q1018 NOSIG RMK RWY17L /////KT RWY05 04012KT RWY23 04012KT 350V070
Conditions at: LTBA (ISTANBUL/ATATURK, TR) observed 1950 UTC 19 September 2020
Temperature: 20.0°C (68°F)
Dewpoint: 13.0°C (55°F) [RH = 64%]
Pressure (altimeter): 30.06 inches Hg (1018.0 mb)
Winds: from the NNE (20 degrees) at 14 MPH (12 knots; 6.2 m/s)
Visibility: 6 or more miles (10+ km)
Ceiling: at least 12,000 feet AGL
Clouds: scattered clouds at 3300 feet AGL
Weather: no significant weather observed at this time

METAR text: LTBA 191920Z 02013KT 9999 SCT033 20/13 Q1018 NOSIG RMK RWY17L /////KT RWY05 04012KT RWY23 04012KT
Conditions at: LTBA (ISTANBUL/ATATURK, TR) observed 1920 UTC 19 September 2020
Temperature: 20.0°C (68°F)
Dewpoint: 13.0°C (55°F) [RH = 64%]
Pressure (altimeter): 30.06 inches Hg (1018.0 mb)
Winds: from the NNE (20 degrees) at 15 MPH (13 knots; 6.7 m/s)
Visibility: 6 or more miles (10+ km)
Ceiling: at least 12,000 feet AGL
Clouds: scattered clouds at 3300 feet AGL
Weather: no significant weather observed at this time

METAR text: LTBA 191850Z 02014KT 9999 FEW040 20/13 Q1018 NOSIG RMK RWY17L /////KT RWY05 03015KT RWY23 04014KT
Conditions at: LTBA (ISTANBUL/ATATURK, TR) observed 1850 UTC 19 September 2020
Temperature: 20.0°C (68°F)
Dewpoint: 13.0°C (55°F) [RH = 64%]
Pressure (altimeter): 30.06 inches Hg (1018.0 mb)
Winds: from the NNE (20 degrees) at 16 MPH (14 knots; 7.2 m/s)
Visibility: 6 or more miles (10+ km)
Ceiling: at least 12,000 feet AGL
Clouds: few clouds at 4000 feet AGL
Weather: no significant weather observed at this time

METAR text: LTBA 191820Z 02014KT 9999 FEW040 20/13 Q1018 NOSIG RMK RWY17L /////KT RWY05 04015KT RWY23 04014KT
Conditions at: LTBA (ISTANBUL/ATATURK, TR) observed 1820 UTC 19 September 2020
Temperature: 20.0°C (68°F)
Dewpoint: 13.0°C (55°F) [RH = 64%]
Pressure (altimeter): 30.06 inches Hg (1018.0 mb)
Winds: from the NNE (20 degrees) at 16 MPH (14 knots; 7.2 m/s)
Visibility: 6 or more miles (10+ km)
Ceiling: at least 12,000 feet AGL
Clouds: few clouds at 4000 feet AGL
Weather: no significant weather observed at this time

METAR text: LTBA 191750Z 02014KT 9999 SCT040 20/13 Q1018 NOSIG RMK RWY17L /////KT RWY05 03015KT RWY23 03015KT
Conditions at: LTBA (ISTANBUL/ATATURK, TR) observed 1750 UTC 19 September 2020
Temperature: 20.0°C (68°F)
Dewpoint: 13.0°C (55°F) [RH = 64%]
Pressure (altimeter): 30.06 inches Hg (1018.0 mb)
Winds: from the NNE (20 degrees) at 16 MPH (14 knots; 7.2 m/s)
Visibility: 6 or more miles (10+ km)
Ceiling: at least 12,000 feet AGL
Clouds: scattered clouds at 4000 feet AGL
Weather: no significant weather observed at this time

METAR text: LTBA 191720Z 02015KT 350V070 9999 SCT040 20/13 Q1018 NOSIG RMK RWY17L /////KT RWY05 03016KT RWY23 03015KT
Conditions at: LTBA (ISTANBUL/ATATURK, TR) observed 1720 UTC 19 September 2020
Temperature: 20.0°C (68°F)
Dewpoint: 13.0°C (55°F) [RH = 64%]
Pressure (altimeter): 30.06 inches Hg (1018.0 mb)
Winds: from the NNE (20 degrees) at 17 MPH (15 knots; 7.7 m/s)
Visibility: 6 or more miles (10+ km)
Ceiling: at least 12,000 feet AGL
Clouds: scattered clouds at 4000 feet AGL
Weather: no significant weather observed at this time

METAR text: LTBA 191650Z 02014KT 360V070 9999 SCT035 20/13 Q1018 NOSIG RMK RWY17L /////KT RWY05 03016KT RWY23 03017KT
Conditions at: LTBA (ISTANBUL/ATATURK, TR) observed 1650 UTC 19 September 2020
Temperature: 20.0°C (68°F)
Dewpoint: 13.0°C (55°F) [RH = 64%]
Pressure (altimeter): 30.06 inches Hg (1018.0 mb)
Winds: from the NNE (20 degrees) at 16 MPH (14 knots; 7.2 m/s)
Visibility: 6 or more miles (10+ km)
Ceiling: at least 12,000 feet AGL
Clouds: scattered clouds at 3500 feet AGL
Weather: no significant weather observed at this time

METAR text: LTBA 191620Z 02014KT 9999 SCT035 20/13 Q1018 NOSIG RMK RWY17L /////KT RWY05 04017KT RWY23 04014KT
Conditions at: LTBA (ISTANBUL/ATATURK, TR) observed 1620 UTC 19 September 2020
Temperature: 20.0°C (68°F)
Dewpoint: 13.0°C (55°F) [RH = 64%]
Pressure (altimeter): 30.06 inches Hg (1018.0 mb)
Winds: from the NNE (20 degrees) at 16 MPH (14 knots; 7.2 m/s)
Visibility: 6 or more miles (10+ km)
Ceiling: at least 12,000 feet AGL
Clouds: scattered clouds at 3500 feet AGL
Weather: no significant weather observed at this time

METAR text: LTBA 191550Z 02014KT 9999 SCT035 21/13 Q1018 NOSIG RMK RWY17L /////KT RWY05 04019KT RWY23 04016KT 010V070
Conditions at: LTBA (ISTANBUL/ATATURK, TR) observed 1550 UTC 19 September 2020
Temperature: 21.0°C (70°F)
Dewpoint: 13.0°C (55°F) [RH = 60%]
Pressure (altimeter): 30.06 inches Hg (1018.0 mb)
Winds: from the NNE (20 degrees) at 16 MPH (14 knots; 7.2 m/s)
Visibility: 6 or more miles (10+ km)
Ceiling: at least 12,000 feet AGL
Clouds: scattered clouds at 3500 feet AGL
Weather: no significant weather observed at this time

METAR text: LTBA 191520Z 03016KT 9999 SCT035 21/13 Q1019 NOSIG RMK RWY17L /////KT RWY05 04019KT RWY23 04019KT 020V080
Conditions at: LTBA (ISTANBUL/ATATURK, TR) observed 1520 UTC 19 September 2020
Temperature: 21.0°C (70°F)
Dewpoint: 13.0°C (55°F) [RH = 60%]
Pressure (altimeter): 30.09 inches Hg (1019.0 mb)
Winds: from the NNE (30 degrees) at 18 MPH (16 knots; 8.2 m/s)
Visibility: 6 or more miles (10+ km)
Ceiling: at least 12,000 feet AGL
Clouds: scattered clouds at 3500 feet AGL
Weather: no significant weather observed at this time

METAR text: LTBA 191450Z 04013KT 360V070 9999 SCT040 22/12 Q1019 NOSIG RMK RWY17L /////KT RWY05 06020KT RWY23 05018KT
Conditions at: LTBA (ISTANBUL/ATATURK, TR) observed 1450 UTC 19 September 2020
Temperature: 22.0°C (72°F)
Dewpoint: 12.0°C (54°F) [RH = 53%]
Pressure (altimeter): 30.09 inches Hg (1019.0 mb)
Winds: from the NE (40 degrees) at 15 MPH (13 knots; 6.7 m/s)
Visibility: 6 or more miles (10+ km)
Ceiling: at least 12,000 feet AGL
Clouds: scattered clouds at 4000 feet AGL
Weather: no significant weather observed at this time

METAR text: LTBA 191420Z 02016KT 360V060 9999 SCT040 22/11 Q1019 NOSIG RMK RWY17L /////KT RWY05 05015KT RWY23 06016KT
Conditions at: LTBA (ISTANBUL/ATATURK, TR) observed 1420 UTC 19 September 2020
Temperature: 22.0°C (72°F)
Dewpoint: 11.0°C (52°F) [RH = 50%]
Pressure (altimeter): 30.09 inches Hg (1019.0 mb)
Winds: from the NNE (20 degrees) at 18 MPH (16 knots; 8.2 m/s)
Visibility: 6 or more miles (10+ km)
Ceiling: at least 12,000 feet AGL
Clouds: scattered clouds at 4000 feet AGL
Weather: no significant weather observed at this time

METAR text: LTBA 191350Z 03014G24KT 9999 SCT040 23/10 Q1019 NOSIG RMK RWY17L /////KT RWY05 06020KT RWY23 05018KT 020V080
Conditions at: LTBA (ISTANBUL/ATATURK, TR) observed 1350 UTC 19 September 2020
Temperature: 23.0°C (73°F)
Dewpoint: 10.0°C (50°F) [RH = 44%]
Pressure (altimeter): 30.09 inches Hg (1019.0 mb)
Winds: from the NNE (30 degrees) at 16 MPH (14 knots; 7.2 m/s)
gusting to 28 MPH (24 knots; 12.3 m/s)
Visibility: 6 or more miles (10+ km)
Ceiling: at least 12,000 feet AGL
Clouds: scattered clouds at 4000 feet AGL
Weather: no significant weather observed at this time

METAR text: LTBA 191320Z 05017KT 020V080 9999 SCT040 23/11 Q1019 NOSIG RMK RWY17L /////KT RWY05 05018KT RWY23 05017G28KT 020V080
Conditions at: LTBA (ISTANBUL/ATATURK, TR) observed 1320 UTC 19 September 2020
Temperature: 23.0°C (73°F)
Dewpoint: 11.0°C (52°F) [RH = 47%]
Pressure (altimeter): 30.09 inches Hg (1019.0 mb)
Winds: from the NE (50 degrees) at 20 MPH (17 knots; 8.7 m/s)
Visibility: 6 or more miles (10+ km)
Ceiling: at least 12,000 feet AGL
Clouds: scattered clouds at 4000 feet AGL
Weather: no significant weather observed at this time

METAR text: LTBA 191250Z 04015KT 010V070 9999 SCT040 23/11 Q1019 NOSIG RMK RWY17L /////KT RWY05 06019KT RWY23 05018G29KT
Conditions at: LTBA (ISTANBUL/ATATURK, TR) observed 1250 UTC 19 September 2020
Temperature: 23.0°C (73°F)
Dewpoint: 11.0°C (52°F) [RH = 47%]
Pressure (altimeter): 30.09 inches Hg (1019.0 mb)
Winds: from the NE (40 degrees) at 17 MPH (15 knots; 7.7 m/s)
Visibility: 6 or more miles (10+ km)
Ceiling: at least 12,000 feet AGL
Clouds: scattered clouds at 4000 feet AGL
Weather: no significant weather observed at this time

METAR text: LTBA 191220Z 04015G25KT 010V070 9999 SCT040 24/11 Q1019 NOSIG RMK RWY17L /////KT RWY05 06018KT RWY23 05018KT
Conditions at: LTBA (ISTANBUL/ATATURK, TR) observed 1220 UTC 19 September 2020
Temperature: 24.0°C (75°F)
Dewpoint: 11.0°C (52°F) [RH = 44%]
Pressure (altimeter): 30.09 inches Hg (1019.0 mb)
Winds: from the NE (40 degrees) at 17 MPH (15 knots; 7.7 m/s)
gusting to 29 MPH (25 knots; 12.9 m/s)
Visibility: 6 or more miles (10+ km)
Ceiling: at least 12,000 feet AGL
Clouds: scattered clouds at 4000 feet AGL
Weather: no significant weather observed at this time

METAR text: LTBA 191150Z 03018G28KT 350V080 9999 SCT040 24/11 Q1019 NOSIG RMK RWY17L /////KT RWY05 05018KT RWY23 04020KT
Conditions at: LTBA (ISTANBUL/ATATURK, TR) observed 1150 UTC 19 September 2020
Temperature: 24.0°C (75°F)
Dewpoint: 11.0°C (52°F) [RH = 44%]
Pressure (altimeter): 30.09 inches Hg (1019.0 mb)
Winds: from the NNE (30 degrees) at 21 MPH (18 knots; 9.3 m/s)
gusting to 32 MPH (28 knots; 14.4 m/s)
Visibility: 6 or more miles (10+ km)
Ceiling: at least 12,000 feet AGL
Clouds: scattered clouds at 4000 feet AGL
Weather: no significant weather observed at this time

METAR text: LTBA 191120Z 04015KT 350V080 9999 SCT040 24/11 Q1019 NOSIG RMK RWY17L /////KT RWY05 06019KT RWY23 06018KT 030V090
Conditions at: LTBA (ISTANBUL/ATATURK, TR) observed 1120 UTC 19 September 2020
Temperature: 24.0°C (75°F)
Dewpoint: 11.0°C (52°F) [RH = 44%]
Pressure (altimeter): 30.09 inches Hg (1019.0 mb)
Winds: from the NE (40 degrees) at 17 MPH (15 knots; 7.7 m/s)
Visibility: 6 or more miles (10+ km)
Ceiling: at least 12,000 feet AGL
Clouds: scattered clouds at 4000 feet AGL
Weather: no significant weather observed at this time

METAR text: LTBA 191050Z 04016KT 9999 SCT040 25/13 Q1019 NOSIG RMK RWY17L /////KT RWY05 06018KT RWY23 06017KT 020V080
Conditions at: LTBA (ISTANBUL/ATATURK, TR) observed 1050 UTC 19 September 2020
Temperature: 25.0°C (77°F)
Dewpoint: 13.0°C (55°F) [RH = 47%]
Pressure (altimeter): 30.09 inches Hg (1019.0 mb)
Winds: from the NE (40 degrees) at 18 MPH (16 knots; 8.2 m/s)
Visibility: 6 or more miles (10+ km)
Ceiling: at least 12,000 feet AGL
Clouds: scattered clouds at 4000 feet AGL
Weather: no significant weather observed at this time

METAR text: LTBA 191020Z 03016KT 360V070 9999 SCT040 25/12 Q1020 NOSIG RMK RWY17L /////KT RWY05 05019G29KT 020V080 RWY23 05018KT 020V080
Conditions at: LTBA (ISTANBUL/ATATURK, TR) observed 1020 UTC 19 September 2020
Temperature: 25.0°C (77°F)
Dewpoint: 12.0°C (54°F) [RH = 44%]
Pressure (altimeter): 30.12 inches Hg (1020.0 mb)
Winds: from the NNE (30 degrees) at 18 MPH (16 knots; 8.2 m/s)
Visibility: 6 or more miles (10+ km)
Ceiling: at least 12,000 feet AGL
Clouds: scattered clouds at 4000 feet AGL
Weather: no significant weather observed at this time

METAR text: LTBA 190950Z 02018KT 9999 SCT040 24/12 Q1020 NOSIG RMK RWY17L /////KT RWY05 05018KT RWY23 04018KT
Conditions at: LTBA (ISTANBUL/ATATURK, TR) observed 0950 UTC 19 September 2020
Temperature: 24.0°C (75°F)
Dewpoint: 12.0°C (54°F) [RH = 47%]
Pressure (altimeter): 30.12 inches Hg (1020.0 mb)
Winds: from the NNE (20 degrees) at 21 MPH (18 knots; 9.3 m/s)
Visibility: 6 or more miles (10+ km)
Ceiling: at least 12,000 feet AGL
Clouds: scattered clouds at 4000 feet AGL
Weather: no significant weather observed at this time

METAR text: LTBA 190920Z 05017KT 010V080 9999 SCT040 25/12 Q1020 NOSIG RMK RWY17L /////KT RWY05 05019KT RWY23 05019KT 020V090
Conditions at: LTBA (ISTANBUL/ATATURK, TR) observed 0920 UTC 19 September 2020
Temperature: 25.0°C (77°F)
Dewpoint: 12.0°C (54°F) [RH = 44%]
Pressure (altimeter): 30.12 inches Hg (1020.0 mb)
Winds: from the NE (50 degrees) at 20 MPH (17 knots; 8.7 m/s)
Visibility: 6 or more miles (10+ km)
Ceiling: at least 12,000 feet AGL
Clouds: scattered clouds at 4000 feet AGL
Weather: no significant weather observed at this time

METAR text: LTBA 190850Z 04016G26KT 9999 SCT040 24/13 Q1020 NOSIG RMK RWY17L /////KT RWY05 05020KT RWY23 05018KT
Conditions at: LTBA (ISTANBUL/ATATURK, TR) observed 0850 UTC 19 September 2020
Temperature: 24.0°C (75°F)
Dewpoint: 13.0°C (55°F) [RH = 50%]
Pressure (altimeter): 30.12 inches Hg (1020.0 mb)
Winds: from the NE (40 degrees) at 18 MPH (16 knots; 8.2 m/s)
gusting to 30 MPH (26 knots; 13.4 m/s)
Visibility: 6 or more miles (10+ km)
Ceiling: at least 12,000 feet AGL
Clouds: scattered clouds at 4000 feet AGL
Weather: no significant weather observed at this time

METAR text: LTBA 190820Z 04016KT 010V070 9999 SCT040 24/13 Q1020 NOSIG RMK RWY17L /////KT RWY05 05018KT RWY23 05016KT
Conditions at: LTBA (ISTANBUL/ATATURK, TR) observed 0820 UTC 19 September 2020
Temperature: 24.0°C (75°F)
Dewpoint: 13.0°C (55°F) [RH = 50%]
Pressure (altimeter): 30.12 inches Hg (1020.0 mb)
Winds: from the NE (40 degrees) at 18 MPH (16 knots; 8.2 m/s)
Visibility: 6 or more miles (10+ km)
Ceiling: at least 12,000 feet AGL
Clouds: scattered clouds at 4000 feet AGL
Weather: no significant weather observed at this time

METAR text: LTBA 190750Z 03017KT 9999 SCT040 24/13 Q1020 NOSIG RMK RWY17L /////KT RWY05 06019KT RWY23 06019KT
Conditions at: LTBA (ISTANBUL/ATATURK, TR) observed 0750 UTC 19 September 2020
Temperature: 24.0°C (75°F)
Dewpoint: 13.0°C (55°F) [RH = 50%]
Pressure (altimeter): 30.12 inches Hg (1020.0 mb)
Winds: from the NNE (30 degrees) at 20 MPH (17 knots; 8.7 m/s)
Visibility: 6 or more miles (10+ km)
Ceiling: at least 12,000 feet AGL
Clouds: scattered clouds at 4000 feet AGL
Weather: no significant weather observed at this time

METAR text: LTBA 190720Z 03017G27KT 350V060 9999 SCT040 23/13 Q1021 NOSIG RMK RWY17L /////KT RWY05 05019KT RWY23 06021KT
Conditions at: LTBA (ISTANBUL/ATATURK, TR) observed 0720 UTC 19 September 2020
Temperature: 23.0°C (73°F)
Dewpoint: 13.0°C (55°F) [RH = 53%]
Pressure (altimeter): 30.15 inches Hg (1021.0 mb)
Winds: from the NNE (30 degrees) at 20 MPH (17 knots; 8.7 m/s)
gusting to 31 MPH (27 knots; 13.9 m/s)
Visibility: 6 or more miles (10+ km)
Ceiling: at least 12,000 feet AGL
Clouds: scattered clouds at 4000 feet AGL
Weather: no significant weather observed at this time

METAR text: LTBA 190650Z 03016G26KT 9999 SCT040 23/13 Q1020 NOSIG RMK RWY17L /////KT RWY05 06020KT RWY23 06019KT
Conditions at: LTBA (ISTANBUL/ATATURK, TR) observed 0650 UTC 19 September 2020
Temperature: 23.0°C (73°F)
Dewpoint: 13.0°C (55°F) [RH = 53%]
Pressure (altimeter): 30.12 inches Hg (1020.0 mb)
Winds: from the NNE (30 degrees) at 18 MPH (16 knots; 8.2 m/s)
gusting to 30 MPH (26 knots; 13.4 m/s)
Visibility: 6 or more miles (10+ km)
Ceiling: at least 12,000 feet AGL
Clouds: scattered clouds at 4000 feet AGL
Weather: no significant weather observed at this time

METAR text: LTBA 190620Z 04015KT 9999 SCT040 23/13 Q1020 NOSIG RMK RWY17L /////KT RWY05 06018KT RWY23 05019KT
Conditions at: LTBA (ISTANBUL/ATATURK, TR) observed 0620 UTC 19 September 2020
Temperature: 23.0°C (73°F)
Dewpoint: 13.0°C (55°F) [RH = 53%]
Pressure (altimeter): 30.12 inches Hg (1020.0 mb)
Winds: from the NE (40 degrees) at 17 MPH (15 knots; 7.7 m/s)
Visibility: 6 or more miles (10+ km)
Ceiling: at least 12,000 feet AGL
Clouds: scattered clouds at 4000 feet AGL
Weather: no significant weather observed at this time

METAR text: LTBA 190550Z 04017KT 010V070 9999 SCT040 22/14 Q1020 NOSIG RMK RWY17L /////KT RWY05 05020KT RWY23 05018KT
Conditions at: LTBA (ISTANBUL/ATATURK, TR) observed 0550 UTC 19 September 2020
Temperature: 22.0°C (72°F)
Dewpoint: 14.0°C (57°F) [RH = 60%]
Pressure (altimeter): 30.12 inches Hg (1020.0 mb)
Winds: from the NE (40 degrees) at 20 MPH (17 knots; 8.7 m/s)
Visibility: 6 or more miles (10+ km)
Ceiling: at least 12,000 feet AGL
Clouds: scattered clouds at 4000 feet AGL
Weather: no significant weather observed at this time

METAR text: LTBA 190520Z 04016G27KT 9999 SCT040 22/14 Q1019 NOSIG RMK RWY17L 06016KT RWY05 06016KT RWY23 06020KT
Conditions at: LTBA (ISTANBUL/ATATURK, TR) observed 0520 UTC 19 September 2020
Temperature: 22.0°C (72°F)
Dewpoint: 14.0°C (57°F) [RH = 60%]
Pressure (altimeter): 30.09 inches Hg (1019.0 mb)
Winds: from the NE (40 degrees) at 18 MPH (16 knots; 8.2 m/s)
gusting to 31 MPH (27 knots; 13.9 m/s)
Visibility: 6 or more miles (10+ km)
Ceiling: at least 12,000 feet AGL
Clouds: scattered clouds at 4000 feet AGL
Weather: no significant weather observed at this time

METAR text: LTBA 190450Z 04014KT 010V070 9999 BKN040 22/14 Q1019 NOSIG RMK RWY17L 04015KT RWY05 05016KT RWY23 06016KT
Conditions at: LTBA (ISTANBUL/ATATURK, TR) observed 0450 UTC 19 September 2020
Temperature: 22.0°C (72°F)
Dewpoint: 14.0°C (57°F) [RH = 60%]
Pressure (altimeter): 30.09 inches Hg (1019.0 mb)
Winds: from the NE (40 degrees) at 16 MPH (14 knots; 7.2 m/s)
Visibility: 6 or more miles (10+ km)
Ceiling: 4000 feet AGL
Clouds: broken clouds at 4000 feet AGL
Weather: no significant weather observed at this time

METAR text: LTBA 190420Z 04014KT 9999 BKN040 21/14 Q1019 NOSIG RMK RWY17L 04015KT RWY05 06015KT RWY23 06016KT
Conditions at: LTBA (ISTANBUL/ATATURK, TR) observed 0420 UTC 19 September 2020
Temperature: 21.0°C (70°F)
Dewpoint: 14.0°C (57°F) [RH = 64%]
Pressure (altimeter): 30.09 inches Hg (1019.0 mb)
Winds: from the NE (40 degrees) at 16 MPH (14 knots; 7.2 m/s)
Visibility: 6 or more miles (10+ km)
Ceiling: 4000 feet AGL
Clouds: broken clouds at 4000 feet AGL
Weather: no significant weather observed at this time

METAR text: LTBA 190350Z 04015KT 9999 BKN040 21/14 Q1019 NOSIG RMK RWY17L 04015KT RWY05 06016KT RWY23 06014KT
Conditions at: LTBA (ISTANBUL/ATATURK, TR) observed 0350 UTC 19 September 2020
Temperature: 21.0°C (70°F)
Dewpoint: 14.0°C (57°F) [RH = 64%]
Pressure (altimeter): 30.09 inches Hg (1019.0 mb)
Winds: from the NE (40 degrees) at 17 MPH (15 knots; 7.7 m/s)
Visibility: 6 or more miles (10+ km)
Ceiling: 4000 feet AGL
Clouds: broken clouds at 4000 feet AGL
Weather: no significant weather observed at this time

METAR text: LTBA 190320Z 04015KT 9999 BKN040 21/15 Q1019 NOSIG RMK RWY17L 03015KT RWY05 06016KT RWY23 06017KT 020V080
Conditions at: LTBA (ISTANBUL/ATATURK, TR) observed 0320 UTC 19 September 2020
Temperature: 21.0°C (70°F)
Dewpoint: 15.0°C (59°F) [RH = 69%]
Pressure (altimeter): 30.09 inches Hg (1019.0 mb)
Winds: from the NE (40 degrees) at 17 MPH (15 knots; 7.7 m/s)
Visibility: 6 or more miles (10+ km)
Ceiling: 4000 feet AGL
Clouds: broken clouds at 4000 feet AGL
Weather: no significant weather observed at this time

METAR text: LTBA 190250Z 04014KT 9999 SCT040 21/15 Q1019 NOSIG RMK RWY17L 03015KT RWY05 06016KT RWY23 06016KT
Conditions at: LTBA (ISTANBUL/ATATURK, TR) observed 0250 UTC 19 September 2020
Temperature: 21.0°C (70°F)
Dewpoint: 15.0°C (59°F) [RH = 69%]
Pressure (altimeter): 30.09 inches Hg (1019.0 mb)
Winds: from the NE (40 degrees) at 16 MPH (14 knots; 7.2 m/s)
Visibility: 6 or more miles (10+ km)
Ceiling: at least 12,000 feet AGL
Clouds: scattered clouds at 4000 feet AGL
Weather: no significant weather observed at this time

METAR text: LTBA 190220Z 04015KT 010V070 9999 SCT040 21/15 Q1019 NOSIG RMK RWY17L 03015KT RWY05 06015KT RWY23 05017KT
Conditions at: LTBA (ISTANBUL/ATATURK, TR) observed 0220 UTC 19 September 2020
Temperature: 21.0°C (70°F)
Dewpoint: 15.0°C (59°F) [RH = 69%]
Pressure (altimeter): 30.09 inches Hg (1019.0 mb)
Winds: from the NE (40 degrees) at 17 MPH (15 knots; 7.7 m/s)
Visibility: 6 or more miles (10+ km)
Ceiling: at least 12,000 feet AGL
Clouds: scattered clouds at 4000 feet AGL
Weather: no significant weather observed at this time

METAR text: LTBA 190150Z 04015KT 9999 SCT025 21/15 Q1019 NOSIG RMK RWY17L 03015KT RWY05 05018KT RWY23 05018KT
Conditions at: LTBA (ISTANBUL/ATATURK, TR) observed 0150 UTC 19 September 2020
Temperature: 21.0°C (70°F)
Dewpoint: 15.0°C (59°F) [RH = 69%]
Pressure (altimeter): 30.09 inches Hg (1019.0 mb)
Winds: from the NE (40 degrees) at 17 MPH (15 knots; 7.7 m/s)
Visibility: 6 or more miles (10+ km)
Ceiling: at least 12,000 feet AGL
Clouds: scattered clouds at 2500 feet AGL
Weather: no significant weather observed at this time

METAR text: LTBA 190120Z 03014KT 9999 BKN025 21/16 Q1019 NOSIG RMK RWY17L 03015KT RWY05 05016KT RWY23 05017KT
Conditions at: LTBA (ISTANBUL/ATATURK, TR) observed 0120 UTC 19 September 2020
Temperature: 21.0°C (70°F)
Dewpoint: 16.0°C (61°F) [RH = 73%]
Pressure (altimeter): 30.09 inches Hg (1019.0 mb)
Winds: from the NNE (30 degrees) at 16 MPH (14 knots; 7.2 m/s)
Visibility: 6 or more miles (10+ km)
Ceiling: 2500 feet AGL
Clouds: broken clouds at 2500 feet AGL
Weather: no significant weather observed at this time

METAR text: LTBA 190050Z 04015KT 9999 BKN025 22/16 Q1018 NOSIG RMK RWY17L 03015KT RWY05 06017KT RWY23 06018KT 020V080
Conditions at: LTBA (ISTANBUL/ATATURK, TR) observed 0050 UTC 19 September 2020
Temperature: 22.0°C (72°F)
Dewpoint: 16.0°C (61°F) [RH = 69%]
Pressure (altimeter): 30.06 inches Hg (1018.0 mb)
Winds: from the NE (40 degrees) at 17 MPH (15 knots; 7.7 m/s)
Visibility: 6 or more miles (10+ km)
Ceiling: 2500 feet AGL
Clouds: broken clouds at 2500 feet AGL
Weather: no significant weather observed at this time

METAR text: LTBA 190020Z 03015KT 9999 BKN025 22/16 Q1018 NOSIG RMK RWY17L 03015KT RWY05 05016KT RWY23 05015KT
Conditions at: LTBA (ISTANBUL/ATATURK, TR) observed 0020 UTC 19 September 2020
Temperature: 22.0°C (72°F)
Dewpoint: 16.0°C (61°F) [RH = 69%]
Pressure (altimeter): 30.06 inches Hg (1018.0 mb)
Winds: from the NNE (30 degrees) at 17 MPH (15 knots; 7.7 m/s)
Visibility: 6 or more miles (10+ km)
Ceiling: 2500 feet AGL
Clouds: broken clouds at 2500 feet AGL
Weather: no significant weather observed at this time

METAR text: LTBA 182350Z 03014KT 340V050 9999 BKN025 22/17 Q1018 NOSIG RMK RWY17L 03014KT RWY05 05018KT RWY23 05013KT
Conditions at: LTBA (ISTANBUL/ATATURK, TR) observed 2350 UTC 18 September 2020
Temperature: 22.0°C (72°F)
Dewpoint: 17.0°C (63°F) [RH = 73%]
Pressure (altimeter): 30.06 inches Hg (1018.0 mb)
Winds: from the NNE (30 degrees) at 16 MPH (14 knots; 7.2 m/s)
Visibility: 6 or more miles (10+ km)
Ceiling: 2500 feet AGL
Clouds: broken clouds at 2500 feet AGL
Weather: no significant weather observed at this time

METAR text: LTBA 182320Z 03014G24KT 9999 SCT022 22/17 Q1018 NOSIG RMK RWY17L 03014KT RWY05 05017KT RWY23 04020KT
Conditions at: LTBA (ISTANBUL/ATATURK, TR) observed 2320 UTC 18 September 2020
Temperature: 22.0°C (72°F)
Dewpoint: 17.0°C (63°F) [RH = 73%]
Pressure (altimeter): 30.06 inches Hg (1018.0 mb)
Winds: from the NNE (30 degrees) at 16 MPH (14 knots; 7.2 m/s)
gusting to 28 MPH (24 knots; 12.3 m/s)
Visibility: 6 or more miles (10+ km)
Ceiling: at least 12,000 feet AGL
Clouds: scattered clouds at 2200 feet AGL
Weather: no significant weather observed at this time

METAR text: LTBA 182250Z 03012KT 010V070 9999 SCT022 22/18 Q1018 NOSIG RMK RWY17L 03014KT RWY05 04016KT RWY23 04014KT
Conditions at: LTBA (ISTANBUL/ATATURK, TR) observed 2250 UTC 18 September 2020
Temperature: 22.0°C (72°F)
Dewpoint: 18.0°C (64°F) [RH = 78%]
Pressure (altimeter): 30.06 inches Hg (1018.0 mb)
Winds: from the NNE (30 degrees) at 14 MPH (12 knots; 6.2 m/s)
Visibility: 6 or more miles (10+ km)
Ceiling: at least 12,000 feet AGL
Clouds: scattered clouds at 2200 feet AGL
Weather: no significant weather observed at this time

METAR text: LTBA 182220Z 03013KT 360V060 9999 SCT021 BKN070 22/18 Q1018 NOSIG RMK RWY17L 03014G24KT RWY05 05016KT RWY23 05012G22KT
Conditions at: LTBA (ISTANBUL/ATATURK, TR) observed 2220 UTC 18 September 2020
Temperature: 22.0°C (72°F)
Dewpoint: 18.0°C (64°F) [RH = 78%]
Pressure (altimeter): 30.06 inches Hg (1018.0 mb)
Winds: from the NNE (30 degrees) at 15 MPH (13 knots; 6.7 m/s)
Visibility: 6 or more miles (10+ km)
Ceiling: 7000 feet AGL
Clouds: scattered clouds at 2100 feet AGL
broken clouds at 7000 feet AGL
Weather: no significant weather observed at this time

METAR text: LTBA 182150Z 03012KT 9999 SCT025 23/18 Q1018 NOSIG RMK RWY17L 03012KT 360V070 RWY05 05015KT RWY23 06014KT
Conditions at: LTBA (ISTANBUL/ATATURK, TR) observed 2150 UTC 18 September 2020
Temperature: 23.0°C (73°F)
Dewpoint: 18.0°C (64°F) [RH = 73%]
Pressure (altimeter): 30.06 inches Hg (1018.0 mb)
Winds: from the NNE (30 degrees) at 14 MPH (12 knots; 6.2 m/s)
Visibility: 6 or more miles (10+ km)
Ceiling: at least 12,000 feet AGL
Clouds: scattered clouds at 2500 feet AGL
Weather: no significant weather observed at this time

METAR text: LTBA 182120Z 04013KT 9999 SCT025 23/18 Q1018 NOSIG RMK RWY17L 03013KT 360V060 RWY05 06014KT RWY23 05017KT 020V080
Conditions at: LTBA (ISTANBUL/ATATURK, TR) observed 2120 UTC 18 September 2020
Temperature: 23.0°C (73°F)
Dewpoint: 18.0°C (64°F) [RH = 73%]
Pressure (altimeter): 30.06 inches Hg (1018.0 mb)
Winds: from the NE (40 degrees) at 15 MPH (13 knots; 6.7 m/s)
Visibility: 6 or more miles (10+ km)
Ceiling: at least 12,000 feet AGL
Clouds: scattered clouds at 2500 feet AGL
Weather: no significant weather observed at this time

METAR text: LTBA 182050Z 03014KT 360V060 9999 SCT025 23/18 Q1018 NOSIG RMK RWY17L 04013KT RWY05 06016KT RWY23 05018KT
Conditions at: LTBA (ISTANBUL/ATATURK, TR) observed 2050 UTC 18 September 2020
Temperature: 23.0°C (73°F)
Dewpoint: 18.0°C (64°F) [RH = 73%]
Pressure (altimeter): 30.06 inches Hg (1018.0 mb)
Winds: from the NNE (30 degrees) at 16 MPH (14 knots; 7.2 m/s)
Visibility: 6 or more miles (10+ km)
Ceiling: at least 12,000 feet AGL
Clouds: scattered clouds at 2500 feet AGL
Weather: no significant weather observed at this time

METAR text: LTBA 182020Z 04012KT 9999 SCT025 23/18 Q1018 NOSIG RMK RWY17L 03012G22KT 360V060 RWY05 06014KT RWY23 06016KT
Conditions at: LTBA (ISTANBUL/ATATURK, TR) observed 2020 UTC 18 September 2020
Temperature: 23.0°C (73°F)
Dewpoint: 18.0°C (64°F) [RH = 73%]
Pressure (altimeter): 30.06 inches Hg (1018.0 mb)
Winds: from the NE (40 degrees) at 14 MPH (12 knots; 6.2 m/s)
Visibility: 6 or more miles (10+ km)
Ceiling: at least 12,000 feet AGL
Clouds: scattered clouds at 2500 feet AGL
Weather: no significant weather observed at this time

METAR text: LTBA 181950Z 05011KT 9999 SCT025 23/18 Q1018 NOSIG RMK RWY17L 04014KT RWY05 06016KT RWY23 06014KT 020V080
Conditions at: LTBA (ISTANBUL/ATATURK, TR) observed 1950 UTC 18 September 2020
Temperature: 23.0°C (73°F)
Dewpoint: 18.0°C (64°F) [RH = 73%]
Pressure (altimeter): 30.06 inches Hg (1018.0 mb)
Winds: from the NE (50 degrees) at 13 MPH (11 knots; 5.7 m/s)
Visibility: 6 or more miles (10+ km)
Ceiling: at least 12,000 feet AGL
Clouds: scattered clouds at 2500 feet AGL
Weather: no significant weather observed at this time

METAR text: LTBA 181920Z 03011KT 360V060 9999 SCT027 23/18 Q1018 NOSIG RMK RWY17L 04011KT RWY05 05014KT RWY23 05013KT
Conditions at: LTBA (ISTANBUL/ATATURK, TR) observed 1920 UTC 18 September 2020
Temperature: 23.0°C (73°F)
Dewpoint: 18.0°C (64°F) [RH = 73%]
Pressure (altimeter): 30.06 inches Hg (1018.0 mb)
Winds: from the NNE (30 degrees) at 13 MPH (11 knots; 5.7 m/s)
Visibility: 6 or more miles (10+ km)
Ceiling: at least 12,000 feet AGL
Clouds: scattered clouds at 2700 feet AGL
Weather: no significant weather observed at this time

METAR text: LTBA 181850Z 04012KT 9999 FEW027 23/17 Q1018 NOSIG RMK RWY17L 04011KT RWY05 06012KT RWY23 06012KT
Conditions at: LTBA (ISTANBUL/ATATURK, TR) observed 1850 UTC 18 September 2020
Temperature: 23.0°C (73°F)
Dewpoint: 17.0°C (63°F) [RH = 69%]
Pressure (altimeter): 30.06 inches Hg (1018.0 mb)
Winds: from the NE (40 degrees) at 14 MPH (12 knots; 6.2 m/s)
Visibility: 6 or more miles (10+ km)
Ceiling: at least 12,000 feet AGL
Clouds: few clouds at 2700 feet AGL
Weather: no significant weather observed at this time

METAR text: LTBA 181820Z 04013KT 9999 FEW027 23/17 Q1017 NOSIG RMK RWY17L 04012KT RWY05 06014KT RWY23 06013KT
Conditions at: LTBA (ISTANBUL/ATATURK, TR) observed 1820 UTC 18 September 2020
Temperature: 23.0°C (73°F)
Dewpoint: 17.0°C (63°F) [RH = 69%]
Pressure (altimeter): 30.03 inches Hg (1017.0 mb)
Winds: from the NE (40 degrees) at 15 MPH (13 knots; 6.7 m/s)
Visibility: 6 or more miles (10+ km)
Ceiling: at least 12,000 feet AGL
Clouds: few clouds at 2700 feet AGL
Weather: no significant weather observed at this time

METAR text: LTBA 181750Z 04010G23KT 010V080 9999 FEW027 23/18 Q1017 NOSIG RMK RWY17L 04010KT RWY05 06016KT RWY23 06014KT
Conditions at: LTBA (ISTANBUL/ATATURK, TR) observed 1750 UTC 18 September 2020
Temperature: 23.0°C (73°F)
Dewpoint: 18.0°C (64°F) [RH = 73%]
Pressure (altimeter): 30.03 inches Hg (1017.0 mb)
Winds: from the NE (40 degrees) at 12 MPH (10 knots; 5.1 m/s)
gusting to 26 MPH (23 knots; 11.8 m/s)
Visibility: 6 or more miles (10+ km)
Ceiling: at least 12,000 feet AGL
Clouds: few clouds at 2700 feet AGL
Weather: no significant weather observed at this time

METAR text: LTBA 181720Z 04014KT 360V060 9999 FEW027 24/18 Q1017 NOSIG RMK RWY17L 02012KT RWY05 05015KT RWY23 05014KT 020V080
Conditions at: LTBA (ISTANBUL/ATATURK, TR) observed 1720 UTC 18 September 2020
Temperature: 24.0°C (75°F)
Dewpoint: 18.0°C (64°F) [RH = 69%]
Pressure (altimeter): 30.03 inches Hg (1017.0 mb)
Winds: from the NE (40 degrees) at 16 MPH (14 knots; 7.2 m/s)
Visibility: 6 or more miles (10+ km)
Ceiling: at least 12,000 feet AGL
Clouds: few clouds at 2700 feet AGL
Weather: no significant weather observed at this time

METAR text: LTBA 181650Z 03014KT 9999 FEW030 24/18 Q1016 NOSIG RMK RWY17L 03012KT 360V060 RWY05 06015KT RWY23 06014KT
Conditions at: LTBA (ISTANBUL/ATATURK, TR) observed 1650 UTC 18 September 2020
Temperature: 24.0°C (75°F)
Dewpoint: 18.0°C (64°F) [RH = 69%]
Pressure (altimeter): 30.00 inches Hg (1016.0 mb)
Winds: from the NNE (30 degrees) at 16 MPH (14 knots; 7.2 m/s)
Visibility: 6 or more miles (10+ km)
Ceiling: at least 12,000 feet AGL
Clouds: few clouds at 3000 feet AGL
Weather: no significant weather observed at this time

METAR text: LTBA 181620Z 02012KT 010V070 9999 FEW030 24/18 Q1016 NOSIG RMK RWY17L 04013KT 360V070 RWY05 05013KT RWY23 06015KT
Conditions at: LTBA (ISTANBUL/ATATURK, TR) observed 1620 UTC 18 September 2020
Temperature: 24.0°C (75°F)
Dewpoint: 18.0°C (64°F) [RH = 69%]
Pressure (altimeter): 30.00 inches Hg (1016.0 mb)
Winds: from the NNE (20 degrees) at 14 MPH (12 knots; 6.2 m/s)
Visibility: 6 or more miles (10+ km)
Ceiling: at least 12,000 feet AGL
Clouds: few clouds at 3000 feet AGL
Weather: no significant weather observed at this time

METAR text: LTBA 181550Z 04013KT 9999 FEW030 24/16 Q1016 NOSIG RMK RWY17L 03013KT RWY05 04018KT RWY23 04014KT
Conditions at: LTBA (ISTANBUL/ATATURK, TR) observed 1550 UTC 18 September 2020
Temperature: 24.0°C (75°F)
Dewpoint: 16.0°C (61°F) [RH = 61%]
Pressure (altimeter): 30.00 inches Hg (1016.0 mb)
Winds: from the NE (40 degrees) at 15 MPH (13 knots; 6.7 m/s)
Visibility: 6 or more miles (10+ km)
Ceiling: at least 12,000 feet AGL
Clouds: few clouds at 3000 feet AGL
Weather: no significant weather observed at this time

METAR text: LTBA 181520Z 02014KT 360V060 9999 FEW030 25/17 Q1016 NOSIG RMK RWY17L 05014KT 360V080 RWY05 05014KT RWY23 06016KT 030V090
Conditions at: LTBA (ISTANBUL/ATATURK, TR) observed 1520 UTC 18 September 2020
Temperature: 25.0°C (77°F)
Dewpoint: 17.0°C (63°F) [RH = 61%]
Pressure (altimeter): 30.00 inches Hg (1016.0 mb)
Winds: from the NNE (20 degrees) at 16 MPH (14 knots; 7.2 m/s)
Visibility: 6 or more miles (10+ km)
Ceiling: at least 12,000 feet AGL
Clouds: few clouds at 3000 feet AGL
Weather: no significant weather observed at this time

METAR text: LTBA 181450Z 04013KT 010V080 9999 FEW036 25/17 Q1016 NOSIG RMK RWY17L 03012KT 360V070 RWY05 05016KT RWY23 03015KT
Conditions at: LTBA (ISTANBUL/ATATURK, TR) observed 1450 UTC 18 September 2020
Temperature: 25.0°C (77°F)
Dewpoint: 17.0°C (63°F) [RH = 61%]
Pressure (altimeter): 30.00 inches Hg (1016.0 mb)
Winds: from the NE (40 degrees) at 15 MPH (13 knots; 6.7 m/s)
Visibility: 6 or more miles (10+ km)
Ceiling: at least 12,000 feet AGL
Clouds: few clouds at 3600 feet AGL
Weather: no significant weather observed at this time

METAR text: LTBA 181420Z 02015KT 9999 FEW036 26/17 Q1016 NOSIG RMK RWY17L 04013KT 350V070 RWY05 03016KT RWY23 03013KT 360V060
Conditions at: LTBA (ISTANBUL/ATATURK, TR) observed 1420 UTC 18 September 2020
Temperature: 26.0°C (79°F)
Dewpoint: 17.0°C (63°F) [RH = 58%]
Pressure (altimeter): 30.00 inches Hg (1016.0 mb)
Winds: from the NNE (20 degrees) at 17 MPH (15 knots; 7.7 m/s)
Visibility: 6 or more miles (10+ km)
Ceiling: at least 12,000 feet AGL
Clouds: few clouds at 3600 feet AGL
Weather: no significant weather observed at this time

Forecast for: LTBA (ISTANBUL/ATATURK, TR)
Text: TAF LTBA 192240Z 2000/2106 05012KT 9999 SCT035
Forecast period: 0000 to 0100 UTC 20 September 2020
Forecast type: FROM: standard forecast or significant change
Winds: from the NE (50 degrees) at 14 MPH (12 knots; 6.2 m/s)
Visibility: 6 or more miles (10+ km)
Ceiling: at least 12,000 feet AGL
Clouds: scattered clouds at 3500 feet AGL
Weather: no significant weather forecast for this period
Text: BECMG 2001/2004 BKN027
Forecast period: 0100 to 0700 UTC 20 September 2020
Forecast type: BECOMING: Conditions expected to become as follows by 0400 UTC 20 September 2020
Winds: from the NE (50 degrees) at 14 MPH (12 knots; 6.2 m/s)
Visibility: 6 or more miles (10+ km)
Ceiling: 2700 feet AGL
Clouds: broken clouds at 2700 feet AGL
Weather: no significant weather forecast for this period
Text: BECMG 2007/2010 04015G25KT
Forecast period: 0700 to 1600 UTC 20 September 2020
Forecast type: BECOMING: Conditions expected to become as follows by 1000 UTC 20 September 2020
Winds: from the NE (40 degrees) at 17 MPH (15 knots; 7.7 m/s)
gusting to 29 MPH (25 knots; 12.9 m/s)
Visibility: 6 or more miles (10+ km)
Ceiling: 2700 feet AGL
Clouds: broken clouds at 2700 feet AGL
Weather: no significant weather forecast for this period
Text: PROB30
Forecast period: 0900 to 1300 UTC 20 September 2020
Forecast type: TEMPORARY: The following changes expected for less than half the time period
Visibility: missing
Ceiling: unknown
Clouds: missing
Weather: -SHRA  (light rain showers)
Text: TEMPO 2009/2013 -SHRA
Forecast period: 1600 UTC 20 September 2020 to 0600 UTC 21 September 2020
Forecast type: BECOMING: Conditions expected to become as follows by 2000 UTC 20 September 2020
Winds: from the NE (50 degrees) at 14 MPH (12 knots; 6.2 m/s)
Visibility: 6 or more miles (10+ km)
Ceiling: at least 12,000 feet AGL
Clouds: scattered clouds at 3500 feet AGL
Weather: no significant weather forecast for this period